Archival Weather

Biggin Hill

Biggin Hill, United Kingdom (EGKB)

Report from: Sunday, September 25, 2022 10:20 AM BST
Current time: Saturday, March 2, 2024 11:04 AM GMT

Current weather – Weather history – Daily summaries
Weather forecast

Temperature12.0°C (53.6°F)
Dew point8.0°C (46.4°F)
Winds 9 kts (4.6 m/s, 10.4 mph) North (350°)
Visibility6.2 mi. (10 km)
Clouds Few clouds 1,600 ft. (488 m)
Altimeter30.12 in.Hg (1020 mB)
Relative humidity77 %
Density altitude-432 ft. (-132 m)
Flight conditions Visual Meteorological Conditions
Raw dataEGKB 250920Z 35009KT 9999 FEW016 12/08 Q1020
An error has occurred. This application may no longer respond until reloaded. Reload 🗙